createdAt,value
2019-02-05T00:02:21.904Z,6.77
2019-02-05T00:04:53.783Z,5.33
2019-02-05T00:07:25.737Z,5.83
2019-02-05T00:09:57.688Z,6.30
2019-02-05T00:12:29.551Z,5.57
2019-02-05T00:15:01.425Z,5.80
2019-02-05T00:17:33.300Z,5.63
2019-02-05T00:20:06.901Z,5.53
2019-02-05T00:22:38.786Z,6.83
2019-02-05T00:25:10.758Z,6.90
2019-02-05T00:27:42.892Z,5.50
2019-02-05T00:30:15.730Z,8.73
2019-02-05T00:32:48.035Z,6.70
2019-02-05T00:35:20.091Z,7.70
2019-02-05T00:37:52.011Z,6.53
2019-02-05T00:40:23.932Z,5.77
2019-02-05T00:42:55.885Z,6.20
2019-02-05T00:45:28.223Z,5.30
2019-02-05T00:48:00.158Z,6.13
2019-02-05T00:50:32.237Z,5.40
2019-02-05T00:53:04.890Z,6.77
2019-02-05T00:55:36.931Z,6.13
2019-02-05T00:58:08.795Z,5.30
2019-02-05T01:00:40.974Z,6.97
2019-02-05T01:03:13.125Z,7.03
2019-02-05T01:05:45.027Z,7.00
2019-02-05T01:08:19.098Z,6.53
2019-02-05T01:10:51.104Z,4.57
2019-02-05T01:13:23.127Z,5.87
2019-02-05T01:15:55.128Z,5.77
2019-02-05T01:18:27.387Z,5.23
2019-02-05T01:20:59.669Z,6.60
2019-02-05T01:23:31.870Z,5.93
2019-02-05T01:26:04.031Z,5.27
2019-02-05T01:28:37.158Z,6.80
2019-02-05T01:31:09.082Z,5.93
2019-02-05T01:33:42.508Z,6.83
2019-02-05T01:36:14.511Z,6.83
2019-02-05T01:38:46.463Z,6.63
2019-02-05T01:41:18.368Z,5.47
2019-02-05T01:43:50.276Z,6.67
2019-02-05T01:46:22.201Z,5.23
2019-02-05T01:48:54.095Z,6.50
2019-02-05T01:51:25.982Z,5.67
2019-02-05T01:53:58.020Z,10.37
2019-02-05T01:56:40.181Z,6.53
2019-02-05T01:59:03.550Z,6.83
2019-02-05T02:01:35.894Z,8.67
2019-02-05T02:04:08.070Z,6.13
2019-02-05T02:06:39.948Z,6.33
2019-02-05T02:09:12.691Z,4.93
2019-02-05T02:11:44.742Z,6.33
2019-02-05T02:14:17.408Z,5.57
2019-02-05T02:16:49.303Z,5.57
2019-02-05T02:19:22.018Z,7.73
2019-02-05T02:21:54.129Z,6.00
2019-02-05T02:24:26.347Z,6.10
2019-02-05T02:26:58.386Z,5.67
2019-02-05T02:29:30.425Z,6.13
2019-02-05T02:32:02.407Z,5.97
2019-02-05T02:34:34.357Z,6.17
2019-02-05T02:37:06.268Z,9.73
2019-02-05T02:39:38.258Z,9.60
2019-02-05T02:42:10.393Z,10.67
2019-02-05T02:44:42.297Z,7.70
2019-02-05T02:47:14.187Z,6.67
2019-02-05T02:49:46.155Z,8.77
2019-02-05T02:52:18.116Z,8.97
2019-02-05T02:54:51.690Z,8.27
2019-02-05T02:57:25.677Z,6.47
2019-02-05T02:59:57.865Z,6.03
2019-02-05T03:02:29.880Z,5.87
2019-02-05T03:05:01.887Z,5.73
2019-02-05T03:07:33.960Z,6.23
2019-02-05T03:10:09.405Z,6.63
2019-02-05T03:12:41.411Z,5.37
2019-02-05T03:15:13.777Z,7.23
2019-02-05T03:17:45.759Z,6.00
2019-02-05T03:20:18.458Z,6.97
2019-02-05T03:22:50.554Z,4.87
2019-02-05T03:25:24.947Z,5.03
2019-02-05T03:27:57.044Z,6.83
2019-02-05T03:30:29.022Z,4.57
2019-02-05T03:33:00.979Z,4.70
2019-02-05T03:35:32.879Z,6.30
2019-02-05T03:38:05.128Z,5.10
2019-02-05T03:41:11.997Z,4.80
2019-02-05T03:43:44.145Z,4.80
2019-02-05T03:46:18.822Z,6.67
2019-02-05T03:48:52.446Z,4.47
2019-02-05T03:52:11.064Z,5.80
2019-02-05T03:55:30.146Z,5.87
2019-02-05T03:59:33.969Z,5.67
2019-02-05T04:02:48.351Z,5.07
2019-02-05T04:06:21.081Z,5.47
2019-02-05T04:09:47.085Z,5.37
2019-02-05T04:13:22.946Z,6.33
2019-02-05T04:16:29.363Z,6.30
2019-02-05T04:19:54.815Z,5.33
2019-02-05T04:23:11.498Z,5.63
2019-02-05T04:26:45.500Z,5.07
2019-02-05T04:30:09.602Z,5.67
2019-02-05T04:33:10.768Z,5.43
2019-02-05T04:36:50.167Z,5.67
2019-02-05T04:40:02.104Z,5.17
2019-02-05T04:43:09.590Z,5.30
2019-02-05T04:46:16.699Z,5.23
2019-02-05T04:49:33.618Z,4.87
2019-02-05T04:52:52.700Z,5.90
2019-02-05T04:55:56.830Z,4.97
2019-02-05T04:59:33.619Z,6.00
2019-02-05T05:03:11.991Z,6.60
2019-02-05T05:06:33.217Z,5.87
2019-02-05T05:09:50.490Z,6.87
2019-02-05T05:12:22.705Z,12.83
2019-02-05T05:14:55.169Z,10.13
2019-02-05T05:17:27.111Z,10.67
2019-02-05T05:19:59.411Z,9.90
2019-02-05T05:22:31.551Z,11.23
2019-02-05T05:25:03.645Z,10.13
2019-02-05T05:27:35.776Z,9.60
2019-02-05T05:30:12.940Z,8.50
2019-02-05T05:32:45.087Z,6.90
2019-02-05T05:35:17.432Z,8.03
2019-02-05T05:37:49.979Z,8.90
2019-02-05T05:40:22.190Z,17.13
2019-02-05T05:42:54.294Z,17.47
2019-02-05T05:45:26.311Z,12.77
2019-02-05T05:47:58.242Z,9.37
2019-02-05T05:50:30.264Z,10.57
2019-02-05T05:53:02.620Z,8.47
2019-02-05T05:55:34.578Z,9.30
2019-02-05T05:58:06.780Z,7.90
2019-02-05T06:00:38.799Z,8.30
2019-02-05T06:03:10.861Z,7.57
2019-02-05T06:05:43.002Z,7.30
2019-02-05T06:08:15.065Z,8.03
2019-02-05T06:10:47.038Z,8.67
2019-02-05T06:13:19.023Z,9.97
2019-02-05T06:15:51.161Z,9.20
2019-02-05T06:18:23.259Z,7.63
2019-02-05T06:20:55.453Z,9.10
2019-02-05T06:23:27.411Z,7.83
2019-02-05T06:25:59.779Z,7.67
2019-02-05T06:28:34.742Z,9.60
2019-02-05T06:31:05.961Z,13.00
2019-02-05T06:33:38.009Z,12.03
2019-02-05T06:36:10.054Z,7.90
2019-02-05T06:38:44.645Z,14.07
2019-02-05T06:41:18.580Z,17.60
2019-02-05T06:43:50.951Z,7.60
2019-02-05T06:46:22.942Z,8.00
2019-02-05T06:48:56.851Z,9.17
2019-02-05T06:51:29.036Z,12.73
2019-02-05T06:54:01.685Z,12.33
2019-02-05T06:56:33.743Z,8.20
2019-02-05T06:59:05.787Z,9.43
2019-02-05T07:01:37.743Z,9.10
2019-02-05T07:04:09.975Z,13.67
2019-02-05T07:06:41.860Z,9.97
2019-02-05T07:09:14.775Z,11.40
2019-02-05T07:11:47.500Z,11.63
2019-02-05T07:14:19.498Z,11.73
2019-02-05T07:16:51.486Z,12.03
2019-02-05T07:19:23.463Z,8.37
2019-02-05T07:21:55.580Z,10.27
2019-02-05T07:24:27.910Z,11.47
2019-02-05T07:27:00.092Z,22.87
2019-02-05T07:29:32.430Z,28.97
2019-02-05T07:32:05.116Z,7.77
2019-02-05T07:34:37.183Z,7.00
2019-02-05T07:37:09.155Z,7.20
2019-02-05T07:39:41.111Z,6.77
2019-02-05T07:42:13.026Z,7.17
2019-02-05T07:44:44.985Z,6.50
2019-02-05T07:47:16.984Z,5.00
2019-02-05T07:49:48.914Z,8.27
2019-02-05T07:52:20.898Z,6.93
2019-02-05T07:54:53.449Z,5.93
2019-02-05T07:57:25.590Z,10.73
2019-02-05T07:59:57.591Z,13.60
2019-02-05T08:02:29.948Z,12.80
2019-02-05T08:05:01.939Z,12.53
2019-02-05T08:07:34.001Z,12.37
2019-02-05T08:10:06.848Z,17.00
2019-02-05T08:12:39.080Z,13.50
2019-02-05T08:15:14.004Z,12.13
2019-02-05T08:17:46.122Z,20.23
2019-02-05T08:20:19.892Z,11.30
2019-02-05T08:22:52.080Z,10.57
2019-02-05T08:25:24.262Z,10.43
2019-02-05T08:27:56.474Z,9.97
2019-02-05T08:30:35.400Z,10.23
2019-02-05T08:33:07.725Z,8.10
2019-02-05T08:35:39.902Z,8.07
2019-02-05T08:38:12.278Z,8.67
2019-02-05T08:40:44.589Z,7.60
2019-02-05T08:43:16.612Z,7.30
2019-02-05T08:45:56.354Z,9.83
2019-02-05T08:48:22.452Z,8.00
2019-02-05T08:50:54.895Z,7.50
2019-02-05T08:53:26.955Z,8.33
2019-02-05T08:55:59.285Z,7.30
2019-02-05T08:58:31.520Z,8.27
2019-02-05T09:01:03.517Z,9.45
2019-02-05T09:03:35.689Z,8.88
2019-02-05T09:06:07.720Z,9.83
2019-02-05T09:08:40.147Z,12.28
2019-02-05T09:11:12.242Z,10.72
2019-02-05T09:13:44.360Z,12.73
2019-02-05T09:16:17.984Z,10.90
2019-02-05T09:18:50.064Z,10.00
2019-02-05T09:21:22.793Z,10.70
2019-02-05T09:23:54.781Z,9.25
2019-02-05T09:26:26.908Z,11.73
2019-02-05T09:28:59.009Z,8.00
2019-02-05T09:31:31.060Z,6.35
2019-02-05T09:34:03.543Z,7.33
2019-02-05T09:36:35.671Z,8.63
2019-02-05T09:39:09.796Z,8.95
2019-02-05T09:41:41.983Z,9.45
2019-02-05T09:44:14.189Z,8.15
2019-02-05T09:46:46.900Z,7.92
2019-02-05T09:49:18.916Z,8.00
2019-02-05T09:51:50.926Z,8.28
2019-02-05T09:54:23.109Z,9.48
2019-02-05T09:56:55.089Z,8.65
2019-02-05T09:59:27.167Z,10.15
2019-02-05T10:01:59.196Z,10.55
2019-02-05T10:04:31.230Z,11.23
2019-02-05T10:07:03.319Z,12.45
2019-02-05T10:09:35.434Z,12.45
2019-02-05T10:12:08.117Z,11.30
2019-02-05T10:14:40.341Z,15.05
2019-02-05T10:17:12.481Z,18.77
2019-02-05T10:19:44.676Z,15.47
2019-02-05T10:22:16.856Z,13.90
2019-02-05T10:24:49.926Z,12.30
2019-02-05T10:27:22.269Z,12.63
2019-02-05T10:29:59.276Z,11.95
2019-02-05T10:32:27.996Z,9.85
2019-02-05T10:34:59.970Z,8.20
2019-02-05T10:37:32.123Z,7.95
2019-02-05T10:40:05.335Z,9.10
2019-02-05T10:42:37.599Z,8.97
2019-02-05T10:45:11.412Z,8.40
2019-02-05T10:47:43.559Z,9.20
2019-02-05T10:50:17.556Z,9.38
2019-02-05T10:52:50.055Z,10.78
2019-02-05T10:55:22.455Z,14.70
2019-02-05T10:57:54.795Z,11.90
2019-02-05T11:00:29.798Z,11.20
2019-02-05T11:03:04.147Z,10.30
2019-02-05T11:05:36.280Z,11.23
2019-02-05T11:08:09.025Z,11.97
2019-02-05T11:10:41.205Z,9.80
2019-02-05T11:13:13.424Z,9.90
2019-02-05T11:15:45.777Z,9.83
2019-02-05T11:18:17.767Z,11.05
2019-02-05T11:20:49.913Z,9.80
2019-02-05T11:23:22.009Z,9.00
2019-02-05T11:25:54.375Z,10.30
2019-02-05T11:28:26.512Z,9.20
2019-02-05T11:30:58.951Z,7.97
2019-02-05T11:33:31.274Z,7.73
2019-02-05T11:36:03.666Z,7.70
2019-02-05T11:38:35.870Z,7.97
2019-02-05T11:41:07.987Z,8.33
2019-02-05T11:43:40.880Z,7.93
2019-02-05T11:46:13.142Z,8.50
2019-02-05T11:48:45.405Z,7.63
2019-02-05T11:51:17.484Z,8.27
2019-02-05T11:53:49.562Z,7.67
2019-02-05T11:56:21.724Z,9.23
2019-02-05T11:58:54.057Z,9.07
2019-02-05T12:01:39.003Z,9.10
2019-02-05T12:04:06.516Z,9.63
2019-02-05T12:06:38.687Z,8.67
2019-02-05T12:09:24.441Z,9.00
2019-02-05T12:11:56.540Z,8.23
2019-02-05T12:14:28.635Z,10.67
2019-02-05T12:17:01.991Z,8.57
2019-02-05T12:19:34.509Z,8.30
2019-02-05T12:22:07.224Z,8.00
2019-02-05T12:24:39.343Z,7.97
2019-02-05T12:27:11.454Z,7.63
2019-02-05T12:29:43.485Z,10.17
2019-02-05T12:32:15.444Z,8.27
2019-02-05T12:34:47.485Z,7.00
2019-02-05T12:37:19.512Z,6.93
2019-02-05T12:39:51.605Z,7.43
2019-02-05T12:42:23.598Z,7.50
2019-02-05T12:44:55.642Z,6.23
2019-02-05T12:47:27.739Z,8.57
2019-02-05T12:50:00.074Z,11.10
2019-02-05T12:52:32.616Z,8.40
2019-02-05T12:55:13.539Z,7.53
2019-02-05T12:57:39.170Z,10.13
2019-02-05T13:00:33.386Z,13.13
2019-02-05T13:03:06.108Z,8.00
2019-02-05T13:05:39.192Z,7.97
2019-02-05T13:08:11.536Z,8.00
2019-02-05T13:10:47.070Z,8.50
2019-02-05T13:13:19.786Z,7.23
2019-02-05T13:15:51.959Z,9.23
2019-02-05T13:18:24.764Z,7.00
2019-02-05T13:20:56.824Z,9.43
2019-02-05T13:23:28.978Z,8.53
2019-02-05T13:26:01.046Z,7.30
2019-02-05T13:28:33.332Z,6.23
2019-02-05T13:31:08.282Z,7.90
2019-02-05T13:33:40.187Z,8.17
2019-02-05T13:36:13.067Z,6.83
2019-02-05T13:38:45.093Z,7.63
2019-02-05T13:41:17.165Z,8.83
2019-02-05T13:43:49.121Z,6.47
2019-02-05T13:46:21.066Z,7.67
2019-02-05T13:48:53.287Z,9.97
2019-02-05T13:51:25.278Z,7.57
2019-02-05T13:53:57.789Z,9.83
2019-02-05T13:56:29.911Z,8.53
2019-02-05T13:59:01.997Z,9.93
2019-02-05T14:01:34.131Z,15.47
2019-02-05T14:04:06.985Z,14.10
2019-02-05T14:06:39.470Z,12.80
2019-02-05T14:09:15.014Z,13.87
2019-02-05T14:11:47.147Z,12.17
2019-02-05T14:14:19.192Z,14.87
2019-02-05T14:16:51.424Z,14.07
2019-02-05T14:19:23.938Z,12.20
2019-02-05T14:21:56.532Z,13.80
2019-02-05T14:24:28.546Z,14.90
2019-02-05T14:27:00.543Z,12.60
2019-02-05T14:29:32.695Z,15.47
2019-02-05T14:32:04.970Z,14.43
2019-02-05T14:34:37.129Z,14.27
2019-02-05T14:37:09.419Z,17.57
2019-02-05T14:39:41.546Z,18.77
2019-02-05T14:42:13.612Z,11.40
2019-02-05T14:44:45.682Z,12.07
2019-02-05T14:47:17.678Z,11.53
2019-02-05T14:49:49.701Z,12.90
2019-02-05T14:52:21.668Z,11.10
2019-02-05T14:54:55.524Z,10.87
2019-02-05T14:57:27.709Z,13.33
2019-02-05T15:00:00.232Z,11.50
2019-02-05T15:02:32.261Z,11.50
2019-02-05T15:05:04.897Z,10.97
2019-02-05T15:07:37.314Z,13.63
2019-02-05T15:10:11.681Z,12.23
2019-02-05T15:12:43.851Z,12.13
2019-02-05T15:15:18.649Z,11.37
2019-02-05T15:17:51.910Z,11.43
2019-02-05T15:20:40.101Z,11.53
2019-02-05T15:23:13.185Z,11.97
2019-02-05T15:25:45.580Z,25.33
2019-02-05T15:28:17.796Z,20.03
2019-02-05T15:30:49.888Z,16.70
2019-02-05T15:33:42.176Z,12.37
2019-02-05T15:36:33.780Z,15.20
2019-02-05T15:39:14.362Z,13.13
2019-02-05T15:41:46.527Z,13.73
2019-02-05T15:44:18.868Z,11.87
2019-02-05T15:46:51.056Z,13.73
2019-02-05T15:49:23.131Z,13.00
2019-02-05T15:51:55.303Z,14.43
2019-02-05T15:54:27.552Z,15.57
2019-02-05T15:56:59.791Z,12.37
2019-02-05T15:59:43.590Z,13.83
2019-02-05T16:02:16.016Z,15.20
2019-02-05T16:04:48.087Z,15.43
2019-02-05T16:07:20.163Z,15.50
2019-02-05T16:09:52.308Z,13.27
2019-02-05T16:12:24.437Z,13.70
2019-02-05T16:14:56.646Z,12.67
2019-02-05T16:17:28.748Z,16.80
2019-02-05T16:20:00.781Z,13.63
2019-02-05T16:22:32.954Z,17.57
2019-02-05T16:25:06.808Z,19.83
2019-02-05T16:27:39.076Z,22.50
2019-02-05T16:30:16.713Z,30.07
2019-02-05T16:32:49.060Z,20.33
2019-02-05T16:35:21.381Z,18.93
2019-02-05T16:37:55.126Z,17.70
2019-02-05T16:40:28.938Z,17.17
2019-02-05T16:43:01.341Z,17.10
2019-02-05T16:45:33.728Z,14.37
2019-02-05T16:48:06.443Z,14.87
2019-02-05T16:50:42.359Z,14.53
2019-02-05T16:53:15.285Z,15.13
2019-02-05T16:55:47.314Z,16.50
2019-02-05T16:58:19.783Z,15.40
2019-02-05T17:00:51.985Z,14.10
2019-02-05T17:03:24.215Z,14.33
2019-02-05T17:05:56.988Z,14.23
2019-02-05T17:08:29.940Z,17.17
2019-02-05T17:11:02.072Z,13.93
2019-02-05T17:13:34.337Z,13.43
2019-02-05T17:16:06.945Z,15.27
2019-02-05T17:18:39.001Z,14.07
2019-02-05T17:21:11.273Z,14.60
2019-02-05T17:23:43.431Z,16.07
2019-02-05T17:26:15.531Z,12.80
2019-02-05T17:28:47.696Z,17.17
2019-02-05T17:31:19.798Z,14.67
2019-02-05T17:33:51.980Z,19.23
2019-02-05T17:36:24.060Z,15.27
2019-02-05T17:38:56.329Z,17.43
2019-02-05T17:41:28.921Z,25.60
2019-02-05T17:44:01.013Z,20.40
2019-02-05T17:46:33.240Z,19.47
2019-02-05T17:49:05.421Z,19.40
2019-02-05T17:51:37.526Z,22.77
2019-02-05T17:54:09.769Z,20.63
2019-02-05T17:56:41.970Z,22.63
2019-02-05T17:59:14.137Z,23.23
2019-02-05T18:01:46.296Z,19.03
2019-02-05T18:04:18.455Z,21.97
2019-02-05T18:06:51.108Z,17.77
2019-02-05T18:09:23.467Z,22.93
2019-02-05T18:11:55.645Z,25.53
2019-02-05T18:14:28.017Z,21.07
2019-02-05T18:17:02.712Z,22.50
2019-02-05T18:19:34.887Z,22.43
2019-02-05T18:22:08.223Z,23.90
2019-02-05T18:24:40.399Z,26.77
2019-02-05T18:27:12.617Z,23.93
2019-02-05T18:29:44.953Z,27.40
2019-02-05T18:32:17.154Z,30.97
2019-02-05T18:34:49.810Z,28.93
2019-02-05T18:37:22.367Z,28.57
2019-02-05T18:39:54.571Z,31.13
2019-02-05T18:42:27.082Z,28.43
2019-02-05T18:44:59.274Z,32.13
2019-02-05T18:47:32.473Z,32.13
2019-02-05T18:50:06.552Z,30.77
2019-02-05T18:52:51.059Z,29.70
2019-02-05T18:55:25.865Z,32.77
2019-02-05T18:58:08.483Z,29.90
2019-02-05T19:00:35.063Z,64.23
2019-02-05T19:03:15.417Z,65.17
2019-02-05T19:05:43.313Z,30.63
2019-02-05T19:08:16.702Z,48.07
2019-02-05T19:10:49.512Z,37.70
2019-02-05T19:13:21.950Z,31.00
2019-02-05T19:15:54.214Z,32.10
2019-02-05T19:18:26.497Z,31.83
2019-02-05T19:20:58.661Z,30.83
2019-02-05T19:23:31.084Z,29.07
2019-02-05T19:26:12.469Z,30.33
2019-02-05T19:28:46.145Z,29.80
2019-02-05T19:31:39.320Z,30.20
2019-02-05T19:34:11.851Z,37.67
2019-02-05T19:36:44.223Z,35.80
2019-02-05T19:39:16.530Z,32.27
2019-02-05T19:41:49.447Z,36.90
2019-02-05T19:44:21.869Z,32.63
2019-02-05T19:47:00.223Z,29.80
2019-02-05T19:49:40.528Z,33.70
2019-02-05T19:52:12.993Z,37.47
2019-02-05T19:54:45.200Z,36.37
2019-02-05T19:57:17.450Z,30.50
2019-02-05T19:59:49.993Z,29.30
2019-02-05T20:02:22.633Z,29.00
2019-02-05T20:04:55.134Z,32.67
2019-02-05T20:07:27.663Z,31.83
2019-02-05T20:09:59.874Z,35.60
2019-02-05T20:12:32.566Z,30.70
2019-02-05T20:15:07.282Z,29.23
2019-02-05T20:17:39.337Z,34.70
2019-02-05T20:20:14.335Z,89.33
2019-02-05T20:22:46.547Z,46.40
2019-02-05T20:25:19.213Z,35.33
2019-02-05T20:27:52.939Z,32.13
2019-02-05T20:30:25.338Z,31.73
2019-02-05T20:32:57.660Z,33.90
2019-02-05T20:35:29.989Z,29.27
2019-02-05T20:38:02.325Z,33.30
2019-02-05T20:40:34.489Z,31.67
2019-02-05T20:43:07.091Z,30.43
2019-02-05T20:45:39.282Z,47.13
2019-02-05T20:48:11.852Z,39.90
2019-02-05T20:50:44.027Z,33.77
2019-02-05T20:53:16.094Z,32.50
2019-02-05T20:55:48.368Z,31.57
2019-02-05T20:58:20.726Z,29.07
2019-02-05T21:00:52.997Z,31.53
2019-02-05T21:03:25.654Z,31.67
2019-02-05T21:05:57.968Z,30.60
2019-02-05T21:08:30.124Z,29.93
2019-02-05T21:11:02.356Z,31.87
2019-02-05T21:13:36.016Z,32.67
2019-02-05T21:16:09.063Z,32.43
2019-02-05T21:18:41.424Z,29.53
2019-02-05T21:21:13.557Z,28.27
2019-02-05T21:23:45.781Z,29.77
2019-02-05T21:26:18.295Z,29.77
2019-02-05T21:28:50.679Z,35.43
2019-02-05T21:31:23.119Z,37.93
2019-02-05T21:33:55.285Z,36.33
2019-02-05T21:36:27.654Z,45.67
2019-02-05T21:38:59.767Z,43.90
2019-02-05T21:41:32.384Z,34.53
2019-02-05T21:44:05.162Z,35.07
2019-02-05T21:46:37.669Z,31.90
2019-02-05T21:49:09.839Z,30.10
2019-02-05T21:51:43.310Z,31.50
2019-02-05T21:54:16.086Z,33.13
2019-02-05T21:56:48.816Z,29.73
2019-02-05T21:59:21.047Z,36.70
2019-02-05T22:01:53.234Z,32.20
2019-02-05T22:04:27.329Z,33.23
2019-02-05T22:06:59.346Z,30.07
2019-02-05T22:09:31.454Z,31.17
2019-02-05T22:12:03.736Z,34.33
2019-02-05T22:14:36.337Z,35.53
2019-02-05T22:17:08.800Z,32.23
2019-02-05T22:19:42.449Z,37.60
2019-02-05T22:22:14.794Z,31.37
2019-02-05T22:24:47.013Z,32.77
2019-02-05T22:27:19.490Z,35.77
2019-02-05T22:29:51.766Z,36.67
2019-02-05T22:32:24.337Z,39.47
2019-02-05T22:34:56.471Z,35.13
2019-02-05T22:37:28.546Z,33.57
2019-02-05T22:40:00.705Z,37.57
2019-02-05T22:42:32.752Z,38.53
2019-02-05T22:45:06.205Z,37.43
2019-02-05T22:47:38.236Z,36.20
2019-02-05T22:50:15.457Z,33.40
2019-02-05T22:52:47.867Z,33.90
2019-02-05T22:55:20.054Z,36.27
2019-02-05T22:57:52.144Z,32.77
2019-02-05T23:01:34.834Z,36.20
2019-02-05T23:04:50.406Z,32.10
2019-02-05T23:07:22.264Z,31.77
2019-02-05T23:10:41.435Z,33.57
2019-02-05T23:13:17.399Z,28.83
2019-02-05T23:15:51.824Z,29.97
2019-02-05T23:18:24.701Z,32.40
2019-02-05T23:20:56.969Z,33.60
2019-02-05T23:23:29.081Z,31.27
2019-02-05T23:26:01.229Z,31.77
2019-02-05T23:28:33.399Z,29.67
2019-02-05T23:31:05.903Z,29.87
2019-02-05T23:33:38.030Z,33.90
2019-02-05T23:36:10.802Z,32.80
2019-02-05T23:38:43.778Z,31.17
2019-02-05T23:41:16.478Z,33.33
2019-02-05T23:43:48.584Z,30.37
2019-02-05T23:46:20.940Z,30.93
2019-02-05T23:48:52.902Z,31.07
2019-02-05T23:51:25.178Z,30.23
2019-02-05T23:53:57.564Z,32.60
2019-02-05T23:56:29.716Z,30.40
2019-02-05T23:59:01.736Z,34.10
